sensor_id;sensor_type;location;lat;lon;timestamp;temperature;humidity
45491;DHT22;31237;45.586;13.782;2023-02-15T00:01:11;6.30;73.70
45491;DHT22;31237;45.586;13.782;2023-02-15T00:03:37;6.30;73.60
45491;DHT22;31237;45.586;13.782;2023-02-15T00:06:04;6.30;73.50
45491;DHT22;31237;45.586;13.782;2023-02-15T00:08:30;6.30;73.60
45491;DHT22;31237;45.586;13.782;2023-02-15T00:11:15;6.30;73.40
45491;DHT22;31237;45.586;13.782;2023-02-15T00:13:42;6.30;73.20
45491;DHT22;31237;45.586;13.782;2023-02-15T00:16:12;6.30;73.20
45491;DHT22;31237;45.586;13.782;2023-02-15T00:18:40;6.30;73.10
45491;DHT22;31237;45.586;13.782;2023-02-15T00:21:08;6.30;72.90
45491;DHT22;31237;45.586;13.782;2023-02-15T00:23:35;6.20;73.00
45491;DHT22;31237;45.586;13.782;2023-02-15T00:26:11;6.30;73.20
45491;DHT22;31237;45.586;13.782;2023-02-15T00:28:38;6.20;73.00
45491;DHT22;31237;45.586;13.782;2023-02-15T00:31:09;6.20;73.10
45491;DHT22;31237;45.586;13.782;2023-02-15T00:33:36;6.20;73.10
45491;DHT22;31237;45.586;13.782;2023-02-15T00:36:02;6.30;72.90
45491;DHT22;31237;45.586;13.782;2023-02-15T00:38:29;6.20;72.90
45491;DHT22;31237;45.586;13.782;2023-02-15T00:40:57;6.30;72.80
45491;DHT22;31237;45.586;13.782;2023-02-15T00:43:22;6.30;72.90
45491;DHT22;31237;45.586;13.782;2023-02-15T00:45:48;6.30;72.80
45491;DHT22;31237;45.586;13.782;2023-02-15T00:48:14;6.30;72.70
45491;DHT22;31237;45.586;13.782;2023-02-15T00:50:40;6.30;72.70
45491;DHT22;31237;45.586;13.782;2023-02-15T00:53:05;6.30;73.10
45491;DHT22;31237;45.586;13.782;2023-02-15T00:55:31;6.30;72.40
45491;DHT22;31237;45.586;13.782;2023-02-15T00:57:57;6.20;72.40
45491;DHT22;31237;45.586;13.782;2023-02-15T01:00:23;6.20;72.40
45491;DHT22;31237;45.586;13.782;2023-02-15T01:02:48;6.20;72.40
45491;DHT22;31237;45.586;13.782;2023-02-15T01:05:14;6.20;72.50
45491;DHT22;31237;45.586;13.782;2023-02-15T01:07:44;6.20;72.60
45491;DHT22;31237;45.586;13.782;2023-02-15T01:10:09;6.10;72.60
45491;DHT22;31237;45.586;13.782;2023-02-15T01:12:35;6.10;72.50
45491;DHT22;31237;45.586;13.782;2023-02-15T01:15:01;6.10;72.60
45491;DHT22;31237;45.586;13.782;2023-02-15T01:17:26;6.10;73.20
45491;DHT22;31237;45.586;13.782;2023-02-15T01:19:52;6.10;72.60
45491;DHT22;31237;45.586;13.782;2023-02-15T01:22:18;6.10;72.60
45491;DHT22;31237;45.586;13.782;2023-02-15T01:24:44;6.10;72.60
45491;DHT22;31237;45.586;13.782;2023-02-15T01:27:10;6.00;72.60
45491;DHT22;31237;45.586;13.782;2023-02-15T01:29:36;6.10;72.60
45491;DHT22;31237;45.586;13.782;2023-02-15T01:32:02;6.10;72.50
45491;DHT22;31237;45.586;13.782;2023-02-15T01:34:29;6.10;72.50
45491;DHT22;31237;45.586;13.782;2023-02-15T01:36:55;6.10;72.40
45491;DHT22;31237;45.586;13.782;2023-02-15T01:39:20;6.10;72.30
45491;DHT22;31237;45.586;13.782;2023-02-15T01:41:46;6.10;71.90
45491;DHT22;31237;45.586;13.782;2023-02-15T01:47:29;6.20;71.50
45491;DHT22;31237;45.586;13.782;2023-02-15T01:52:42;6.30;71.20
45491;DHT22;31237;45.586;13.782;2023-02-15T01:55:10;6.30;70.90
45491;DHT22;31237;45.586;13.782;2023-02-15T01:57:38;6.30;71.00
45491;DHT22;31237;45.586;13.782;2023-02-15T02:00:05;6.30;71.10
45491;DHT22;31237;45.586;13.782;2023-02-15T02:02:31;6.40;70.90
45491;DHT22;31237;45.586;13.782;2023-02-15T02:05:00;6.40;70.90
45491;DHT22;31237;45.586;13.782;2023-02-15T02:07:34;6.40;70.90
45491;DHT22;31237;45.586;13.782;2023-02-15T02:10:05;6.40;70.40
45491;DHT22;31237;45.586;13.782;2023-02-15T02:12:32;6.50;70.20
45491;DHT22;31237;45.586;13.782;2023-02-15T02:14:59;6.50;70.10
45491;DHT22;31237;45.586;13.782;2023-02-15T02:37:23;6.70;68.60
45491;DHT22;31237;45.586;13.782;2023-02-15T02:40:21;6.70;68.60
45491;DHT22;31237;45.586;13.782;2023-02-15T02:42:59;6.70;68.30
45491;DHT22;31237;45.586;13.782;2023-02-15T02:45:30;6.70;68.40
45491;DHT22;31237;45.586;13.782;2023-02-15T02:48:05;6.70;68.20
45491;DHT22;31237;45.586;13.782;2023-02-15T02:50:33;6.80;68.20
45491;DHT22;31237;45.586;13.782;2023-02-15T02:52:59;6.80;68.20
45491;DHT22;31237;45.586;13.782;2023-02-15T02:55:27;6.80;68.10
45491;DHT22;31237;45.586;13.782;2023-02-15T03:00:45;6.80;67.90
45491;DHT22;31237;45.586;13.782;2023-02-15T03:03:28;6.80;67.90
45491;DHT22;31237;45.586;13.782;2023-02-15T03:05:59;6.80;67.50
45491;DHT22;31237;45.586;13.782;2023-02-15T03:08:31;6.90;67.40
45491;DHT22;31237;45.586;13.782;2023-02-15T03:11:00;6.90;67.40
45491;DHT22;31237;45.586;13.782;2023-02-15T03:13:27;6.80;67.10
45491;DHT22;31237;45.586;13.782;2023-02-15T03:15:54;6.80;67.00
45491;DHT22;31237;45.586;13.782;2023-02-15T03:18:44;6.80;67.00
45491;DHT22;31237;45.586;13.782;2023-02-15T03:21:20;6.80;67.20
45491;DHT22;31237;45.586;13.782;2023-02-15T03:23:54;6.70;67.10
45491;DHT22;31237;45.586;13.782;2023-02-15T03:26:21;6.70;67.10
45491;DHT22;31237;45.586;13.782;2023-02-15T03:28:50;6.70;67.10
45491;DHT22;31237;45.586;13.782;2023-02-15T03:31:19;6.70;67.20
45491;DHT22;31237;45.586;13.782;2023-02-15T03:34:00;6.60;67.20
45491;DHT22;31237;45.586;13.782;2023-02-15T03:45:11;6.50;67.50
45491;DHT22;31237;45.586;13.782;2023-02-15T03:47:44;6.40;67.40
45491;DHT22;31237;45.586;13.782;2023-02-15T03:50:15;6.40;67.50
45491;DHT22;31237;45.586;13.782;2023-02-15T03:53:03;6.40;67.30
45491;DHT22;31237;45.586;13.782;2023-02-15T03:55:31;6.40;67.40
45491;DHT22;31237;45.586;13.782;2023-02-15T03:57:57;6.30;67.50
45491;DHT22;31237;45.586;13.782;2023-02-15T04:00:48;6.30;67.50
45491;DHT22;31237;45.586;13.782;2023-02-15T04:03:40;6.30;67.50
45491;DHT22;31237;45.586;13.782;2023-02-15T04:06:06;6.30;67.50
45491;DHT22;31237;45.586;13.782;2023-02-15T04:08:32;6.30;67.60
45491;DHT22;31237;45.586;13.782;2023-02-15T04:11:16;6.30;67.60
45491;DHT22;31237;45.586;13.782;2023-02-15T04:13:42;6.30;67.60
45491;DHT22;31237;45.586;13.782;2023-02-15T04:16:08;6.30;67.40
45491;DHT22;31237;45.586;13.782;2023-02-15T04:18:38;6.30;67.40
45491;DHT22;31237;45.586;13.782;2023-02-15T04:21:24;6.30;67.40
45491;DHT22;31237;45.586;13.782;2023-02-15T04:24:09;6.30;67.40
45491;DHT22;31237;45.586;13.782;2023-02-15T04:26:53;6.30;67.30
45491;DHT22;31237;45.586;13.782;2023-02-15T04:29:22;6.30;67.20
45491;DHT22;31237;45.586;13.782;2023-02-15T04:31:48;6.30;67.20
45491;DHT22;31237;45.586;13.782;2023-02-15T04:34:14;6.30;67.20
45491;DHT22;31237;45.586;13.782;2023-02-15T04:36:41;6.30;67.10
45491;DHT22;31237;45.586;13.782;2023-02-15T04:39:07;6.30;67.10
45491;DHT22;31237;45.586;13.782;2023-02-15T04:41:34;6.30;67.00
45491;DHT22;31237;45.586;13.782;2023-02-15T04:44:00;6.20;67.00
45491;DHT22;31237;45.586;13.782;2023-02-15T04:46:27;6.20;67.00
45491;DHT22;31237;45.586;13.782;2023-02-15T04:48:53;6.20;67.10
45491;DHT22;31237;45.586;13.782;2023-02-15T04:51:19;6.10;67.20
45491;DHT22;31237;45.586;13.782;2023-02-15T04:53:44;6.10;67.20
45491;DHT22;31237;45.586;13.782;2023-02-15T04:56:10;6.10;67.20
45491;DHT22;31237;45.586;13.782;2023-02-15T04:58:36;6.10;67.90
45491;DHT22;31237;45.586;13.782;2023-02-15T05:01:02;6.10;67.30
45491;DHT22;31237;45.586;13.782;2023-02-15T05:03:28;6.10;67.30
45491;DHT22;31237;45.586;13.782;2023-02-15T05:05:54;6.10;67.30
45491;DHT22;31237;45.586;13.782;2023-02-15T05:08:20;6.10;67.30
45491;DHT22;31237;45.586;13.782;2023-02-15T05:10:48;6.10;67.30
45491;DHT22;31237;45.586;13.782;2023-02-15T05:13:14;6.10;67.40
45491;DHT22;31237;45.586;13.782;2023-02-15T05:15:40;6.10;67.40
45491;DHT22;31237;45.586;13.782;2023-02-15T05:18:06;6.10;67.50
45491;DHT22;31237;45.586;13.782;2023-02-15T05:20:33;6.10;67.30
45491;DHT22;31237;45.586;13.782;2023-02-15T05:22:59;6.10;67.30
45491;DHT22;31237;45.586;13.782;2023-02-15T05:25:24;6.10;67.30
45491;DHT22;31237;45.586;13.782;2023-02-15T05:28:11;6.10;67.30
45491;DHT22;31237;45.586;13.782;2023-02-15T05:30:51;6.10;68.00
45491;DHT22;31237;45.586;13.782;2023-02-15T05:33:23;6.10;67.30
45491;DHT22;31237;45.586;13.782;2023-02-15T05:35:48;6.10;67.30
45491;DHT22;31237;45.586;13.782;2023-02-15T05:38:14;6.10;67.30
45491;DHT22;31237;45.586;13.782;2023-02-15T05:40:40;6.10;67.30
45491;DHT22;31237;45.586;13.782;2023-02-15T05:43:05;6.10;67.10
45491;DHT22;31237;45.586;13.782;2023-02-15T05:45:31;6.10;67.00
45491;DHT22;31237;45.586;13.782;2023-02-15T05:47:57;6.10;67.10
45491;DHT22;31237;45.586;13.782;2023-02-15T05:50:24;6.10;67.10
45491;DHT22;31237;45.586;13.782;2023-02-15T05:52:50;6.10;67.00
45491;DHT22;31237;45.586;13.782;2023-02-15T05:55:16;6.10;67.00
45491;DHT22;31237;45.586;13.782;2023-02-15T05:57:41;6.10;67.00
45491;DHT22;31237;45.586;13.782;2023-02-15T06:00:08;6.00;67.00
45491;DHT22;31237;45.586;13.782;2023-02-15T06:02:36;6.00;67.10
45491;DHT22;31237;45.586;13.782;2023-02-15T06:05:03;6.00;67.00
45491;DHT22;31237;45.586;13.782;2023-02-15T06:07:29;6.00;67.00
45491;DHT22;31237;45.586;13.782;2023-02-15T06:09:54;6.00;67.00
45491;DHT22;31237;45.586;13.782;2023-02-15T06:12:20;6.00;67.00
45491;DHT22;31237;45.586;13.782;2023-02-15T06:14:46;6.00;67.10
45491;DHT22;31237;45.586;13.782;2023-02-15T06:17:11;6.00;67.00
45491;DHT22;31237;45.586;13.782;2023-02-15T06:19:37;6.00;67.00
45491;DHT22;31237;45.586;13.782;2023-02-15T06:22:03;6.10;67.00
45491;DHT22;31237;45.586;13.782;2023-02-15T06:24:29;6.10;67.00
45491;DHT22;31237;45.586;13.782;2023-02-15T06:26:54;6.00;66.90
45491;DHT22;31237;45.586;13.782;2023-02-15T06:29:20;6.00;67.00
45491;DHT22;31237;45.586;13.782;2023-02-15T06:31:46;6.00;66.90
45491;DHT22;31237;45.586;13.782;2023-02-15T06:34:11;6.10;66.90
45491;DHT22;31237;45.586;13.782;2023-02-15T06:36:37;6.00;66.90
45491;DHT22;31237;45.586;13.782;2023-02-15T06:39:04;6.00;66.90
45491;DHT22;31237;45.586;13.782;2023-02-15T06:41:30;6.00;67.00
45491;DHT22;31237;45.586;13.782;2023-02-15T06:43:55;6.00;67.10
45491;DHT22;31237;45.586;13.782;2023-02-15T06:46:21;6.00;67.20
45491;DHT22;31237;45.586;13.782;2023-02-15T06:48:47;6.00;67.10
45491;DHT22;31237;45.586;13.782;2023-02-15T06:51:12;6.00;67.10
45491;DHT22;31237;45.586;13.782;2023-02-15T06:53:38;6.10;67.10
45491;DHT22;31237;45.586;13.782;2023-02-15T06:56:07;6.10;67.00
45491;DHT22;31237;45.586;13.782;2023-02-15T06:58:38;6.10;67.70
45491;DHT22;31237;45.586;13.782;2023-02-15T07:01:04;6.20;67.10
45491;DHT22;31237;45.586;13.782;2023-02-15T07:03:31;6.20;67.00
45491;DHT22;31237;45.586;13.782;2023-02-15T07:05:58;6.30;66.90
45491;DHT22;31237;45.586;13.782;2023-02-15T07:08:25;6.30;67.00
45491;DHT22;31237;45.586;13.782;2023-02-15T07:10:52;6.30;66.90
45491;DHT22;31237;45.586;13.782;2023-02-15T07:13:19;6.40;67.00
45491;DHT22;31237;45.586;13.782;2023-02-15T07:15:46;6.40;66.90
45491;DHT22;31237;45.586;13.782;2023-02-15T07:18:12;6.40;66.80
45491;DHT22;31237;45.586;13.782;2023-02-15T07:20:38;6.50;66.90
45491;DHT22;31237;45.586;13.782;2023-02-15T07:23:07;6.60;66.90
45491;DHT22;31237;45.586;13.782;2023-02-15T07:25:33;6.70;66.80
45491;DHT22;31237;45.586;13.782;2023-02-15T07:28:01;6.70;66.60
45491;DHT22;31237;45.586;13.782;2023-02-15T07:30:28;6.80;66.60
45491;DHT22;31237;45.586;13.782;2023-02-15T07:32:58;6.90;66.40
45491;DHT22;31237;45.586;13.782;2023-02-15T07:35:53;7.00;66.50
45491;DHT22;31237;45.586;13.782;2023-02-15T07:38:19;7.10;66.20
45491;DHT22;31237;45.586;13.782;2023-02-15T07:40:46;7.20;66.10
45491;DHT22;31237;45.586;13.782;2023-02-15T07:43:12;7.20;65.80
45491;DHT22;31237;45.586;13.782;2023-02-15T07:45:39;7.40;65.80
45491;DHT22;31237;45.586;13.782;2023-02-15T07:48:06;7.40;65.50
45491;DHT22;31237;45.586;13.782;2023-02-15T07:50:32;7.50;65.30
45491;DHT22;31237;45.586;13.782;2023-02-15T07:52:58;7.60;65.00
45491;DHT22;31237;45.586;13.782;2023-02-15T07:55:24;7.60;64.90
45491;DHT22;31237;45.586;13.782;2023-02-15T07:57:50;7.70;64.80
45491;DHT22;31237;45.586;13.782;2023-02-15T08:00:18;7.70;64.90
45491;DHT22;31237;45.586;13.782;2023-02-15T08:02:56;7.80;65.00
45491;DHT22;31237;45.586;13.782;2023-02-15T08:05:42;7.90;65.00
45491;DHT22;31237;45.586;13.782;2023-02-15T08:08:09;8.00;65.00
45491;DHT22;31237;45.586;13.782;2023-02-15T08:10:58;8.10;64.90
45491;DHT22;31237;45.586;13.782;2023-02-15T08:13:44;8.10;64.70
45491;DHT22;31237;45.586;13.782;2023-02-15T08:18:46;8.30;64.50
45491;DHT22;31237;45.586;13.782;2023-02-15T08:21:11;8.30;64.20
45491;DHT22;31237;45.586;13.782;2023-02-15T08:23:37;8.40;64.20
45491;DHT22;31237;45.586;13.782;2023-02-15T08:26:03;8.40;63.70
45491;DHT22;31237;45.586;13.782;2023-02-15T08:28:30;8.50;64.10
45491;DHT22;31237;45.586;13.782;2023-02-15T08:31:04;8.60;64.00
45491;DHT22;31237;45.586;13.782;2023-02-15T08:33:30;8.60;63.70
45491;DHT22;31237;45.586;13.782;2023-02-15T08:35:56;8.70;63.70
45491;DHT22;31237;45.586;13.782;2023-02-15T08:38:21;8.80;63.30
45491;DHT22;31237;45.586;13.782;2023-02-15T08:40:47;8.80;63.00
45491;DHT22;31237;45.586;13.782;2023-02-15T08:43:13;8.90;63.00
45491;DHT22;31237;45.586;13.782;2023-02-15T08:45:38;9.00;62.40
45491;DHT22;31237;45.586;13.782;2023-02-15T08:48:04;9.10;62.40
45491;DHT22;31237;45.586;13.782;2023-02-15T08:50:30;9.20;62.20
45491;DHT22;31237;45.586;13.782;2023-02-15T08:52:56;9.30;61.90
45491;DHT22;31237;45.586;13.782;2023-02-15T08:55:21;9.40;62.30
45491;DHT22;31237;45.586;13.782;2023-02-15T08:57:47;9.40;62.30
45491;DHT22;31237;45.586;13.782;2023-02-15T09:00:13;9.50;62.30
45491;DHT22;31237;45.586;13.782;2023-02-15T09:02:39;9.70;62.00
45491;DHT22;31237;45.586;13.782;2023-02-15T09:05:05;9.80;61.50
45491;DHT22;31237;45.586;13.782;2023-02-15T09:07:31;9.80;61.50
45491;DHT22;31237;45.586;13.782;2023-02-15T09:09:57;10.00;61.50
45491;DHT22;31237;45.586;13.782;2023-02-15T09:12:22;10.10;61.30
45491;DHT22;31237;45.586;13.782;2023-02-15T09:14:48;10.20;61.20
45491;DHT22;31237;45.586;13.782;2023-02-15T09:17:14;10.30;61.10
45491;DHT22;31237;45.586;13.782;2023-02-15T09:19:39;10.40;61.10
45491;DHT22;31237;45.586;13.782;2023-02-15T09:22:05;10.40;60.90
45491;DHT22;31237;45.586;13.782;2023-02-15T09:24:32;10.50;61.00
45491;DHT22;31237;45.586;13.782;2023-02-15T09:26:59;10.60;61.10
45491;DHT22;31237;45.586;13.782;2023-02-15T09:29:24;10.70;62.20
45491;DHT22;31237;45.586;13.782;2023-02-15T09:31:50;10.80;62.60
45491;DHT22;31237;45.586;13.782;2023-02-15T09:34:18;10.80;63.00
45491;DHT22;31237;45.586;13.782;2023-02-15T09:36:45;10.90;64.00
45491;DHT22;31237;45.586;13.782;2023-02-15T09:39:13;11.00;63.50
45491;DHT22;31237;45.586;13.782;2023-02-15T10:09:31;12.10;65.00
45491;DHT22;31237;45.586;13.782;2023-02-15T10:15:13;12.30;64.50
45491;DHT22;31237;45.586;13.782;2023-02-15T10:20:21;12.50;64.50
45491;DHT22;31237;45.586;13.782;2023-02-15T10:31:57;12.80;64.80
45491;DHT22;31237;45.586;13.782;2023-02-15T10:37:00;12.90;64.10
45491;DHT22;31237;45.586;13.782;2023-02-15T10:51:02;13.20;63.20
45491;DHT22;31237;45.586;13.782;2023-02-15T11:07:14;13.70;62.40
45491;DHT22;31237;45.586;13.782;2023-02-15T11:09:47;13.70;62.00
45491;DHT22;31237;45.586;13.782;2023-02-15T11:12:17;13.80;61.70
45491;DHT22;31237;45.586;13.782;2023-02-15T11:15:11;13.80;60.90
45491;DHT22;31237;45.586;13.782;2023-02-15T11:18:09;13.90;61.60
45491;DHT22;31237;45.586;13.782;2023-02-15T11:20:38;13.90;63.10
45491;DHT22;31237;45.586;13.782;2023-02-15T11:23:15;13.90;63.30
45491;DHT22;31237;45.586;13.782;2023-02-15T11:25:44;13.80;64.30
45491;DHT22;31237;45.586;13.782;2023-02-15T11:28:31;13.60;65.30
45491;DHT22;31237;45.586;13.782;2023-02-15T11:31:12;13.50;65.70
45491;DHT22;31237;45.586;13.782;2023-02-15T11:33:43;13.30;66.10
45491;DHT22;31237;45.586;13.782;2023-02-15T11:36:19;13.20;67.40
45491;DHT22;31237;45.586;13.782;2023-02-15T11:38:47;13.10;67.50
45491;DHT22;31237;45.586;13.782;2023-02-15T11:41:18;13.10;67.90
45491;DHT22;31237;45.586;13.782;2023-02-15T11:46:18;13.00;69.20
45491;DHT22;31237;45.586;13.782;2023-02-15T11:48:50;12.90;69.00
45491;DHT22;31237;45.586;13.782;2023-02-15T11:51:17;12.90;69.60
45491;DHT22;31237;45.586;13.782;2023-02-15T11:53:45;12.90;69.80
45491;DHT22;31237;45.586;13.782;2023-02-15T11:56:21;12.90;70.70
45491;DHT22;31237;45.586;13.782;2023-02-15T11:58:55;12.80;70.20
45491;DHT22;31237;45.586;13.782;2023-02-15T12:01:36;12.80;70.70
45491;DHT22;31237;45.586;13.782;2023-02-15T12:04:10;12.80;70.40
45491;DHT22;31237;45.586;13.782;2023-02-15T12:07:01;12.80;70.30
45491;DHT22;31237;45.586;13.782;2023-02-15T12:09:36;12.80;70.50
45491;DHT22;31237;45.586;13.782;2023-02-15T12:12:26;12.70;70.90
45491;DHT22;31237;45.586;13.782;2023-02-15T12:14:58;12.60;70.80
45491;DHT22;31237;45.586;13.782;2023-02-15T12:17:31;12.60;71.40
45491;DHT22;31237;45.586;13.782;2023-02-15T12:20:01;12.60;71.60
45491;DHT22;31237;45.586;13.782;2023-02-15T12:22:30;12.50;71.30
45491;DHT22;31237;45.586;13.782;2023-02-15T12:25:00;12.50;71.40
45491;DHT22;31237;45.586;13.782;2023-02-15T12:27:32;12.50;71.20
45491;DHT22;31237;45.586;13.782;2023-02-15T12:30:07;12.50;71.60
45491;DHT22;31237;45.586;13.782;2023-02-15T12:32:56;12.50;71.50
45491;DHT22;31237;45.586;13.782;2023-02-15T12:35:30;12.50;71.50
45491;DHT22;31237;45.586;13.782;2023-02-15T12:40:41;12.50;71.40
45491;DHT22;31237;45.586;13.782;2023-02-15T12:46:14;12.40;71.20
45491;DHT22;31237;45.586;13.782;2023-02-15T12:48:44;12.40;71.20
45491;DHT22;31237;45.586;13.782;2023-02-15T12:51:14;12.30;71.10
45491;DHT22;31237;45.586;13.782;2023-02-15T12:53:40;12.30;71.20
45491;DHT22;31237;45.586;13.782;2023-02-15T12:56:09;12.30;71.10
45491;DHT22;31237;45.586;13.782;2023-02-15T12:58:37;12.30;71.20
45491;DHT22;31237;45.586;13.782;2023-02-15T13:03:35;12.20;71.50
45491;DHT22;31237;45.586;13.782;2023-02-15T13:06:03;12.20;71.60
45491;DHT22;31237;45.586;13.782;2023-02-15T13:08:36;12.20;71.80
45491;DHT22;31237;45.586;13.782;2023-02-15T13:11:08;12.20;72.30
45491;DHT22;31237;45.586;13.782;2023-02-15T13:14:00;12.10;72.30
45491;DHT22;31237;45.586;13.782;2023-02-15T13:16:37;12.10;72.90
45491;DHT22;31237;45.586;13.782;2023-02-15T13:19:11;12.10;72.70
45491;DHT22;31237;45.586;13.782;2023-02-15T13:21:41;12.00;73.00
45491;DHT22;31237;45.586;13.782;2023-02-15T13:26:42;12.00;72.90
45491;DHT22;31237;45.586;13.782;2023-02-15T13:29:18;12.00;73.10
45491;DHT22;31237;45.586;13.782;2023-02-15T13:31:46;12.00;73.20
45491;DHT22;31237;45.586;13.782;2023-02-15T13:34:21;11.90;73.30
45491;DHT22;31237;45.586;13.782;2023-02-15T13:37:25;11.90;73.40
45491;DHT22;31237;45.586;13.782;2023-02-15T13:40:01;11.90;73.30
45491;DHT22;31237;45.586;13.782;2023-02-15T13:42:38;11.80;74.20
45491;DHT22;31237;45.586;13.782;2023-02-15T13:45:13;11.80;73.80
45491;DHT22;31237;45.586;13.782;2023-02-15T13:47:53;11.80;73.70
45491;DHT22;31237;45.586;13.782;2023-02-15T14:01:39;11.60;74.10
45491;DHT22;31237;45.586;13.782;2023-02-15T14:12:24;11.60;74.10
45491;DHT22;31237;45.586;13.782;2023-02-15T14:32:25;11.30;74.80
45491;DHT22;31237;45.586;13.782;2023-02-15T14:35:03;11.20;74.30
45491;DHT22;31237;45.586;13.782;2023-02-15T14:46:22;11.10;75.10
45491;DHT22;31237;45.586;13.782;2023-02-15T14:48:45;11.00;75.50
45491;DHT22;31237;45.586;13.782;2023-02-15T14:54:10;10.90;76.00
45491;DHT22;31237;45.586;13.782;2023-02-15T14:56:36;10.90;76.40
45491;DHT22;31237;45.586;13.782;2023-02-15T14:59:19;10.90;76.50
45491;DHT22;31237;45.586;13.782;2023-02-15T15:07:25;10.70;76.70
45491;DHT22;31237;45.586;13.782;2023-02-15T15:10:32;10.70;77.00
45491;DHT22;31237;45.586;13.782;2023-02-15T15:12:57;10.60;77.40
45491;DHT22;31237;45.586;13.782;2023-02-15T15:17:58;10.50;77.60
45491;DHT22;31237;45.586;13.782;2023-02-15T15:25:46;10.40;78.00
45491;DHT22;31237;45.586;13.782;2023-02-15T15:31:41;10.20;78.10
45491;DHT22;31237;45.586;13.782;2023-02-15T15:50:54;9.80;79.10
45491;DHT22;31237;45.586;13.782;2023-02-15T15:53:24;9.80;79.30
45491;DHT22;31237;45.586;13.782;2023-02-15T15:55:54;9.70;79.70
45491;DHT22;31237;45.586;13.782;2023-02-15T15:58:21;9.70;79.80
45491;DHT22;31237;45.586;13.782;2023-02-15T16:01:01;9.60;79.90
45491;DHT22;31237;45.586;13.782;2023-02-15T16:03:29;9.50;79.90
45491;DHT22;31237;45.586;13.782;2023-02-15T16:05:55;9.40;80.00
45491;DHT22;31237;45.586;13.782;2023-02-15T16:08:33;9.40;80.20
45491;DHT22;31237;45.586;13.782;2023-02-15T16:11:00;9.30;80.20
45491;DHT22;31237;45.586;13.782;2023-02-15T16:13:33;9.20;80.40
45491;DHT22;31237;45.586;13.782;2023-02-15T16:15:59;9.10;80.40
45491;DHT22;31237;45.586;13.782;2023-02-15T16:18:26;9.10;80.40
45491;DHT22;31237;45.586;13.782;2023-02-15T16:20:58;9.00;80.60
45491;DHT22;31237;45.586;13.782;2023-02-15T16:28:58;8.80;80.10
45491;DHT22;31237;45.586;13.782;2023-02-15T16:31:24;8.70;80.00
45491;DHT22;31237;45.586;13.782;2023-02-15T16:33:53;8.70;80.00
45491;DHT22;31237;45.586;13.782;2023-02-15T16:36:25;8.60;80.00
45491;DHT22;31237;45.586;13.782;2023-02-15T16:41:28;8.50;80.30
45491;DHT22;31237;45.586;13.782;2023-02-15T16:43:54;8.50;80.30
45491;DHT22;31237;45.586;13.782;2023-02-15T16:46:39;8.40;80.30
45491;DHT22;31237;45.586;13.782;2023-02-15T16:49:27;8.40;80.40
45491;DHT22;31237;45.586;13.782;2023-02-15T16:51:59;8.30;80.10
45491;DHT22;31237;45.586;13.782;2023-02-15T16:54:27;8.30;80.20
45491;DHT22;31237;45.586;13.782;2023-02-15T16:56:54;8.30;80.20
45491;DHT22;31237;45.586;13.782;2023-02-15T16:59:39;8.30;80.10
45491;DHT22;31237;45.586;13.782;2023-02-15T17:02:21;8.20;80.10
45491;DHT22;31237;45.586;13.782;2023-02-15T17:07:48;8.20;80.20
45491;DHT22;31237;45.586;13.782;2023-02-15T17:13:25;8.30;80.30
45491;DHT22;31237;45.586;13.782;2023-02-15T17:18:43;8.30;80.20
45491;DHT22;31237;45.586;13.782;2023-02-15T17:21:20;8.30;80.40
45491;DHT22;31237;45.586;13.782;2023-02-15T17:23:50;8.30;80.80
45491;DHT22;31237;45.586;13.782;2023-02-15T17:26:50;8.30;81.10
45491;DHT22;31237;45.586;13.782;2023-02-15T17:31:47;8.40;81.70
45491;DHT22;31237;45.586;13.782;2023-02-15T17:37:12;8.50;82.30
45491;DHT22;31237;45.586;13.782;2023-02-15T17:39:39;8.50;82.50
45491;DHT22;31237;45.586;13.782;2023-02-15T17:42:06;8.60;82.60
45491;DHT22;31237;45.586;13.782;2023-02-15T17:44:31;8.60;82.60
45491;DHT22;31237;45.586;13.782;2023-02-15T17:46:57;8.60;82.70
45491;DHT22;31237;45.586;13.782;2023-02-15T17:49:25;8.60;82.70
45491;DHT22;31237;45.586;13.782;2023-02-15T17:52:02;8.60;83.50
45491;DHT22;31237;45.586;13.782;2023-02-15T17:54:28;8.60;82.90
45491;DHT22;31237;45.586;13.782;2023-02-15T17:57:13;8.60;83.10
45491;DHT22;31237;45.586;13.782;2023-02-15T17:59:40;8.60;83.20
45491;DHT22;31237;45.586;13.782;2023-02-15T18:02:24;8.60;83.10
45491;DHT22;31237;45.586;13.782;2023-02-15T18:05:13;8.60;83.10
45491;DHT22;31237;45.586;13.782;2023-02-15T18:07:57;8.60;83.10
45491;DHT22;31237;45.586;13.782;2023-02-15T18:10:42;8.60;83.10
45491;DHT22;31237;45.586;13.782;2023-02-15T18:13:26;8.60;83.10
45491;DHT22;31237;45.586;13.782;2023-02-15T18:15:51;8.60;83.10
45491;DHT22;31237;45.586;13.782;2023-02-15T18:18:17;8.70;83.10
45491;DHT22;31237;45.586;13.782;2023-02-15T18:20:43;8.70;83.00
45491;DHT22;31237;45.586;13.782;2023-02-15T18:23:15;8.70;82.90
45491;DHT22;31237;45.586;13.782;2023-02-15T18:25:40;8.70;82.80
45491;DHT22;31237;45.586;13.782;2023-02-15T18:28:08;8.70;82.80
45491;DHT22;31237;45.586;13.782;2023-02-15T18:30:35;8.70;82.70
45491;DHT22;31237;45.586;13.782;2023-02-15T18:33:01;8.70;82.80
45491;DHT22;31237;45.586;13.782;2023-02-15T18:35:31;8.70;82.60
45491;DHT22;31237;45.586;13.782;2023-02-15T18:37:58;8.70;82.60
45491;DHT22;31237;45.586;13.782;2023-02-15T18:40:26;8.60;82.50
45491;DHT22;31237;45.586;13.782;2023-02-15T18:42:53;8.60;82.60
45491;DHT22;31237;45.586;13.782;2023-02-15T18:45:24;8.60;82.70
45491;DHT22;31237;45.586;13.782;2023-02-15T18:47:51;8.60;82.70
45491;DHT22;31237;45.586;13.782;2023-02-15T18:50:20;8.60;82.60
45491;DHT22;31237;45.586;13.782;2023-02-15T18:52:48;8.60;82.20
45491;DHT22;31237;45.586;13.782;2023-02-15T18:55:19;8.60;81.80
45491;DHT22;31237;45.586;13.782;2023-02-15T18:57:47;8.60;81.50
45491;DHT22;31237;45.586;13.782;2023-02-15T19:00:24;8.60;81.10
45491;DHT22;31237;45.586;13.782;2023-02-15T19:02:51;8.60;80.70
45491;DHT22;31237;45.586;13.782;2023-02-15T19:05:16;8.60;80.10
45491;DHT22;31237;45.586;13.782;2023-02-15T19:07:43;8.60;79.80
45491;DHT22;31237;45.586;13.782;2023-02-15T19:10:15;8.50;79.60
45491;DHT22;31237;45.586;13.782;2023-02-15T19:12:42;8.50;80.50
45491;DHT22;31237;45.586;13.782;2023-02-15T19:15:17;8.50;80.00
45491;DHT22;31237;45.586;13.782;2023-02-15T19:17:44;8.40;80.00
45491;DHT22;31237;45.586;13.782;2023-02-15T19:20:19;8.40;80.00
45491;DHT22;31237;45.586;13.782;2023-02-15T19:22:49;8.40;80.20
45491;DHT22;31237;45.586;13.782;2023-02-15T19:25:25;8.30;80.20
45491;DHT22;31237;45.586;13.782;2023-02-15T19:27:52;8.30;80.00
45491;DHT22;31237;45.586;13.782;2023-02-15T19:30:27;8.30;79.70
45491;DHT22;31237;45.586;13.782;2023-02-15T19:32:57;8.20;79.30
45491;DHT22;31237;45.586;13.782;2023-02-15T19:35:30;8.10;79.30